Time;durP1;ratioP1;P1;durP2;ratioP2;P2;SDS_P1;SDS_P2;PMS_P1;PMS_P2;Temp;Humidity;BMP_temperature;BMP_pressure;BME280_temperature;BME280_humidity;BME280_pressure;Samples;Min_cycle;Max_cycle;Signal;HPM_P1;HPM_P2
2022/05/06 00:00:18;;;;;;;0.40;0.30;;;10.90;1.40;;;12.15;100.00;95725.88;646865;216;31518;-74
2022/05/06 00:02:59;;;;;;;0.40;0.20;;;10.80;1.40;;;12.09;100.00;95723.56;619749;225;31858;-75
2022/05/06 00:05:41;;;;;;;0.40;0.40;;;10.80;1.40;;;12.11;100.00;95724.87;646539;216;31682;-74
2022/05/06 00:08:23;;;;;;;0.50;0.30;;;10.80;1.40;;;11.96;100.00;95725.02;640724;216;31823;-74
2022/05/06 00:11:04;;;;;;;0.40;0.20;;;10.80;1.40;;;11.90;100.00;95736.90;646549;212;31488;-74
2022/05/06 00:13:46;;;;;;;0.40;0.20;;;10.80;1.40;;;11.82;100.00;95746.44;646901;216;31523;-75
2022/05/06 00:16:28;;;;;;;0.40;0.30;;;10.80;1.40;;;11.83;100.00;95744.14;646345;216;31492;-74
2022/05/06 00:19:10;;;;;;;0.40;0.23;;;10.80;1.40;;;11.92;100.00;95744.85;647228;212;31487;-74
2022/05/06 00:21:52;;;;;;;0.40;0.23;;;10.90;1.40;;;11.98;100.00;95739.43;646970;216;31737;-75
2022/05/06 00:24:33;;;;;;;0.40;0.20;;;10.90;1.40;;;11.95;100.00;95724.83;646137;216;31530;-74
2022/05/06 00:27:15;;;;;;;0.40;0.20;;;10.80;1.40;;;11.97;100.00;95712.34;619218;225;31791;-74
2022/05/06 00:29:57;;;;;;;0.40;0.30;;;10.70;1.40;;;11.92;100.00;95720.19;647363;216;31457;-76
2022/05/06 00:32:39;;;;;;;0.40;0.20;;;10.60;1.40;;;11.76;100.00;95722.94;646202;216;32067;-75
2022/05/06 00:35:55;;;;;;;0.47;0.30;;;10.50;1.40;;;11.70;100.00;95726.39;647203;212;31481;-75
2022/05/06 00:38:38;;;;;;;0.40;0.20;;;10.50;1.40;;;11.69;100.00;95717.01;646727;212;42117;-74
2022/05/06 00:41:19;;;;;;;1.50;0.53;;;10.50;1.40;;;11.91;100.00;95711.73;646065;212;42615;-75
2022/05/06 00:44:01;;;;;;;0.40;0.20;;;10.60;1.40;;;11.89;100.00;95703.38;646257;215;31501;-75
2022/05/06 00:46:46;;;;;;;0.60;0.40;;;10.50;1.40;;;11.90;100.00;95705.22;645512;216;42107;-74
2022/05/06 00:52:04;;;;;;;0.40;0.40;;;10.50;1.40;;;11.85;100.00;95704.23;619125;222;42477;-75
2022/05/06 00:54:44;;;;;;;0.40;0.20;;;10.40;1.40;;;11.88;100.00;95695.95;646731;212;31502;-75
2022/05/06 00:57:25;;;;;;;0.40;0.20;;;10.40;1.40;;;11.80;100.00;95691.41;647372;216;31508;-75
2022/05/06 01:02:55;;;;;;;0.40;0.22;;;10.30;1.40;;;11.86;100.00;95683.06;646219;216;31566;-75
2022/05/06 01:08:11;;;;;;;0.50;0.50;;;10.40;1.40;;;11.79;100.00;95681.33;644196;216;31685;-75
2022/05/06 01:10:52;;;;;;;0.40;0.30;;;10.40;1.40;;;11.86;100.00;95674.59;646157;216;42379;-73
2022/05/06 01:13:41;;;;;;;0.40;0.30;;;10.40;1.40;;;11.95;100.00;95676.42;618884;222;32098;-76
2022/05/06 01:16:22;;;;;;;3.50;0.40;;;10.40;1.40;;;11.98;100.00;95676.01;647391;216;31859;-75
2022/05/06 01:19:08;;;;;;;0.40;0.20;;;10.40;1.40;;;12.01;100.00;95670.51;646683;216;31939;-74
2022/05/06 01:21:49;;;;;;;0.62;0.30;;;10.50;1.40;;;12.10;100.00;95668.69;647843;216;31763;-73
2022/05/06 01:24:31;;;;;;;0.40;0.30;;;10.50;1.40;;;12.12;100.00;95663.06;647707;216;31491;-74
2022/05/06 01:27:15;;;;;;;0.40;0.20;;;10.50;1.40;;;12.04;100.00;95662.47;646114;216;42107;-75
2022/05/06 01:32:34;;;;;;;0.70;0.35;;;10.50;1.40;;;12.05;100.00;95655.86;646173;216;34050;-76
2022/05/06 01:35:54;;;;;;;0.40;0.40;;;10.50;1.40;;;12.11;100.00;95657.58;647331;216;31502;-75
2022/05/06 01:38:41;;;;;;;0.40;0.30;;;10.50;1.40;;;11.81;100.00;95668.03;646613;216;31522;-75
2022/05/06 01:41:23;;;;;;;0.50;0.43;;;10.40;1.40;;;11.81;100.00;95670.78;647032;216;31499;-75
2022/05/06 01:44:05;;;;;;;0.40;0.30;;;10.50;1.40;;;11.84;100.00;95664.95;645244;216;31513;-75
2022/05/06 01:49:21;;;;;;;0.40;0.30;;;10.30;1.40;;;11.79;100.00;95666.88;646558;216;31509;-74
2022/05/06 01:52:06;;;;;;;0.70;0.40;;;10.30;1.40;;;11.71;100.00;95673.91;646312;216;31560;-75
2022/05/06 01:54:47;;;;;;;;;;;10.20;1.40;;;11.64;100.00;95672.80;653444;216;24814;-74
2022/05/06 01:57:28;;;;;;;;;;;10.20;1.40;;;11.50;100.00;95676.08;654150;212;25288;-73
2022/05/06 02:00:12;;;;;;;;;;;10.20;1.40;;;11.49;100.00;95673.33;652458;216;24868;-74
2022/05/06 02:02:56;;;;;;;;;;;10.30;1.40;;;11.47;100.00;95671.95;653186;216;24821;-74
2022/05/06 02:05:35;;;;;;;;;;;10.30;1.40;;;11.47;100.00;95668.70;653694;216;24820;-74
2022/05/06 02:08:17;;;;;;;;;;;10.30;1.40;;;11.43;100.00;95667.66;649608;212;24842;-75
2022/05/06 02:10:58;;;;;;;;;;;10.20;1.40;;;11.32;100.00;95662.37;653729;216;24852;-74
2022/05/06 02:13:40;;;;;;;;;;;10.20;1.40;;;11.22;100.00;95654.27;651943;216;24933;-74
2022/05/06 02:16:21;;;;;;;;;;;10.00;1.40;;;11.23;100.00;95653.70;652717;216;24917;-74
2022/05/06 02:19:03;;;;;;;;;;;10.00;1.40;;;11.22;100.00;95656.72;652463;216;24859;-74
2022/05/06 02:21:43;;;;;;;;;;;9.90;1.40;;;11.25;100.00;95658.83;622658;226;25387;-74
2022/05/06 02:24:25;;;;;;;;;;;9.90;1.40;;;11.24;100.00;95656.78;653504;212;24832;-74
2022/05/06 02:27:06;;;;;;;;;;;9.90;1.40;;;11.19;100.00;95661.88;653245;216;24816;-74
2022/05/06 02:35:54;;;;;;;0.70;0.60;;;9.80;1.40;;;11.06;100.00;95651.16;618961;222;32069;-74
2022/05/06 02:38:35;;;;;;;0.70;0.70;;;9.80;1.40;;;11.06;100.00;95656.64;646186;216;31581;-74
2022/05/06 02:41:17;;;;;;;0.50;0.30;;;9.80;1.40;;;11.04;100.00;95655.86;646600;216;31513;-74
2022/05/06 02:43:59;;;;;;;1.57;0.67;;;9.70;1.40;;;11.05;100.00;95658.17;646152;216;31503;-75
2022/05/06 02:46:40;;;;;;;0.40;0.20;;;9.80;1.40;;;11.11;100.00;95657.79;646839;216;31557;-75
2022/05/06 02:49:22;;;;;;;0.60;0.40;;;9.80;1.40;;;11.14;100.00;95657.30;647365;216;31494;-75
2022/05/06 02:52:06;;;;;;;0.70;0.30;;;9.90;1.40;;;11.14;100.00;95656.91;647644;216;31503;-75
2022/05/06 02:54:49;;;;;;;0.80;0.60;;;9.80;1.40;;;11.14;100.00;95661.53;646817;216;31493;-75
2022/05/06 02:57:30;;;;;;;0.80;0.40;;;9.70;1.40;;;11.24;100.00;95659.61;647151;212;31507;-75
2022/05/06 03:00:13;;;;;;;0.60;0.50;;;9.90;1.40;;;11.35;100.00;95664.35;646368;212;31540;-75
2022/05/06 03:02:56;;;;;;;0.80;0.40;;;9.90;1.40;;;11.26;100.00;95662.89;645968;216;31567;-75
2022/05/06 03:05:37;;;;;;;0.50;0.40;;;9.80;1.40;;;11.15;100.00;95664.76;647022;216;31482;-74
2022/05/06 03:08:18;;;;;;;0.40;0.30;;;9.70;1.40;;;11.10;100.00;95663.13;646176;213;42156;-74
2022/05/06 03:11:00;;;;;;;0.60;0.40;;;9.80;1.40;;;11.13;100.00;95653.62;647565;216;31517;-75
2022/05/06 03:13:42;;;;;;;1.10;0.30;;;9.80;1.40;;;11.25;100.00;95651.83;646656;216;31490;-75
2022/05/06 03:16:23;;;;;;;0.70;0.40;;;9.80;1.40;;;11.21;100.00;95653.98;646132;216;31504;-75
2022/05/06 03:19:06;;;;;;;0.53;0.40;;;9.80;1.40;;;11.23;100.00;95658.05;619472;225;42478;-74
2022/05/06 03:21:48;;;;;;;0.50;0.30;;;9.80;1.40;;;11.25;100.00;95659.16;647125;216;42095;-74
2022/05/06 03:24:29;;;;;;;0.40;0.30;;;9.90;1.40;;;11.28;100.00;95654.86;646608;216;42507;-74
2022/05/06 03:30:08;;;;;;;0.80;0.60;;;9.80;1.40;;;11.32;100.00;95655.41;646094;212;42119;-75
2022/05/06 03:32:48;;;;;;;0.73;0.50;;;9.80;1.40;;;11.24;100.00;95658.15;645629;216;32076;-75
2022/05/06 03:35:51;;;;;;;0.60;0.30;;;9.80;1.40;;;11.26;100.00;95660.01;648094;216;31853;-75
2022/05/06 03:38:36;;;;;;;0.60;0.50;;;9.80;1.40;;;11.25;100.00;95666.42;646734;216;42924;-74
2022/05/06 03:41:17;;;;;;;0.45;0.40;;;9.80;1.40;;;11.26;100.00;95666.41;645829;212;32114;-74
2022/05/06 03:43:59;;;;;;;0.40;0.25;;;9.80;1.40;;;11.31;100.00;95665.48;647298;216;31865;-76
2022/05/06 03:46:41;;;;;;;0.40;0.40;;;9.80;1.40;;;11.34;100.00;95664.50;646373;212;31471;-75
2022/05/06 03:51:57;;;;;;;0.40;0.20;;;9.90;1.40;;;11.35;100.00;95665.80;648070;216;42189;-75
2022/05/06 03:54:38;;;;;;;1.10;0.43;;;9.90;1.40;;;11.43;100.00;95662.22;647070;216;31710;-74
2022/05/06 03:57:20;;;;;;;0.60;0.40;;;9.90;1.40;;;11.49;100.00;95664.48;646651;216;31516;-74
2022/05/06 04:00:05;;;;;;;0.50;0.47;;;9.90;1.40;;;11.46;100.00;95673.44;646466;212;42133;-75
2022/05/06 04:02:47;;;;;;;1.10;0.60;;;10.00;1.40;;;11.50;100.00;95673.84;619368;226;43067;-74
2022/05/06 04:05:29;;;;;;;1.20;0.50;;;10.00;1.40;;;11.51;100.00;95675.45;646086;212;31668;-74
2022/05/06 04:08:10;;;;;;;0.80;0.40;;;10.00;1.40;;;11.62;100.00;95673.67;644257;216;42900;-74
2022/05/06 04:10:52;;;;;;;0.60;0.50;;;10.10;1.40;;;11.52;100.00;95674.34;647317;216;32134;-74
2022/05/06 04:13:34;;;;;;;0.40;0.40;;;10.00;1.40;;;11.52;100.00;95677.55;646357;216;42129;-74
2022/05/06 04:16:16;;;;;;;0.90;0.53;;;10.10;1.40;;;11.44;100.00;95681.63;646573;216;31573;-74
2022/05/06 04:19:00;;;;;;;0.60;0.60;;;10.00;1.40;;;11.28;100.00;95687.53;646912;216;42148;-74
2022/05/06 04:24:29;;;;;;;0.40;0.20;;;9.80;1.40;;;11.17;100.00;95698.78;646864;212;32492;-74
2022/05/06 04:27:11;;;;;;;0.60;0.60;;;9.70;1.40;;;11.06;100.00;95706.23;619911;226;31839;-74
2022/05/06 04:29:52;;;;;;;0.70;0.50;;;9.80;1.40;;;11.04;100.00;95704.71;645719;216;31505;-74
2022/05/06 04:32:34;;;;;;;0.40;0.30;;;9.70;1.40;;;11.04;100.00;95703.55;647677;216;42200;-75
2022/05/06 04:35:51;;;;;;;0.60;0.50;;;9.80;1.40;;;11.12;100.00;95694.84;645329;212;31611;-74
2022/05/06 04:38:33;;;;;;;0.70;0.50;;;9.90;1.40;;;11.18;100.00;95698.16;646757;216;42131;-75
2022/05/06 04:41:14;;;;;;;0.60;0.50;;;9.90;1.40;;;11.24;100.00;95706.84;646884;212;42115;-74
2022/05/06 04:46:33;;;;;;;0.60;0.60;;;10.00;1.40;;;11.60;100.00;95726.67;645697;212;43350;-75
2022/05/06 04:49:15;;;;;;;0.80;0.50;;;10.20;1.40;;;11.75;100.00;95725.66;646184;216;31605;-74
2022/05/06 04:51:57;;;;;;;0.40;0.28;;;10.30;1.40;;;11.81;100.00;95729.62;646334;216;32026;-75
2022/05/06 04:54:39;;;;;;;0.60;0.40;;;10.30;1.40;;;11.91;100.00;95722.75;646722;216;32718;-75
2022/05/06 04:57:21;;;;;;;1.27;0.55;;;10.30;1.40;;;12.02;100.00;95726.58;646384;212;31657;-75
2022/05/06 05:00:02;;;;;;;1.50;0.55;;;10.30;1.40;;;11.86;100.00;95728.28;646896;216;31509;-74
2022/05/06 05:02:44;;;;;;;1.80;0.50;;;10.30;1.40;;;11.72;100.00;95727.74;619137;222;32097;-74
2022/05/06 05:05:26;;;;;;;0.50;0.40;;;10.20;1.40;;;11.88;100.00;95728.98;646984;212;31600;-74
2022/05/06 05:08:09;;;;;;;0.50;0.40;;;10.40;1.40;;;11.98;100.00;95724.61;647050;212;31665;-74
2022/05/06 05:10:49;;;;;;;0.60;0.60;;;10.40;1.40;;;12.11;100.00;95720.10;646549;216;31526;-74
2022/05/06 05:13:38;;;;;;;0.50;0.30;;;10.50;1.40;;;12.29;100.00;95719.37;647112;212;31565;-74
2022/05/06 05:16:16;;;;;;;0.40;0.30;;;10.60;1.40;;;12.13;100.00;95714.45;646742;212;31525;-74
2022/05/06 05:18:58;;;;;;;0.50;0.40;;;10.40;1.40;;;11.92;100.00;95717.41;645767;216;31540;-74
2022/05/06 05:21:40;;;;;;;0.50;0.50;;;10.30;1.40;;;11.76;100.00;95718.47;646809;216;33916;-74
2022/05/06 05:24:21;;;;;;;0.60;0.50;;;10.30;1.40;;;11.70;100.00;95728.08;646976;216;31492;-76
2022/05/06 05:27:03;;;;;;;1.03;0.80;;;10.20;1.40;;;11.78;100.00;95727.89;619922;222;31905;-77
2022/05/06 05:29:45;;;;;;;0.70;0.70;;;10.30;1.40;;;11.89;100.00;95734.13;645749;212;31519;-74
2022/05/06 05:32:27;;;;;;;0.85;0.70;;;10.30;1.40;;;11.85;100.00;95735.59;643055;215;37231;-74
2022/05/06 05:35:51;;;;;;;0.70;0.50;;;10.40;1.40;;;11.86;100.00;95735.11;646747;216;42133;-74
2022/05/06 05:38:33;;;;;;;1.10;0.60;;;10.40;1.40;;;12.02;100.00;95725.65;645105;216;31537;-74
2022/05/06 05:41:15;;;;;;;0.50;0.50;;;10.50;1.40;;;11.92;100.00;95723.77;646037;216;31530;-74
2022/05/06 05:49:32;;;;;;;1.30;1.10;;;10.80;1.40;;;12.70;100.00;95723.95;646095;216;31489;-74
2022/05/06 05:52:14;;;;;;;4.60;1.17;;;10.90;1.40;;;12.76;100.00;95723.95;619082;226;31944;-75
2022/05/06 05:54:59;;;;;;;1.27;0.50;;;10.90;1.40;;;12.98;100.00;95721.67;645996;216;31510;-75
2022/05/06 05:57:47;;;;;;;0.77;0.37;;;11.00;1.40;;;12.80;100.00;95727.45;646916;212;31530;-78
2022/05/06 06:00:36;;;;;;;0.90;0.50;;;10.90;1.40;;;13.17;100.00;95735.40;645886;216;32943;-75
2022/05/06 06:03:16;;;;;;;0.70;0.55;;;11.10;1.40;;;13.02;100.00;95735.08;645894;212;33434;-74
2022/05/06 06:05:58;;;;;;;2.40;0.57;;;11.00;1.40;;;13.11;100.00;95734.02;646528;212;35888;-74
2022/05/06 06:08:43;;;;;;;0.57;0.45;;;11.00;1.40;;;13.21;100.00;95736.86;640439;213;31897;-75
2022/05/06 06:11:24;;;;;;;1.17;0.90;;;11.10;1.40;;;12.86;100.00;95744.34;620392;226;31825;-74
2022/05/06 06:14:06;;;;;;;0.80;0.40;;;10.90;1.40;;;13.06;100.00;95737.88;645772;216;35401;-75
2022/05/06 06:16:50;;;;;;;0.40;0.30;;;11.10;1.40;;;13.19;100.00;95735.42;647218;216;31471;-75
2022/05/06 06:19:29;;;;;;;0.80;0.40;;;11.10;1.40;;;13.22;100.00;95732.71;645936;216;32659;-74
2022/05/06 06:22:12;;;;;;;0.40;0.25;;;11.10;1.40;;;13.10;100.00;95740.27;645956;212;42302;-74
2022/05/06 06:24:53;;;;;;;0.90;0.70;;;11.10;1.40;;;13.31;100.00;95736.22;645955;216;36151;-75
2022/05/06 06:27:34;;;;;;;0.70;0.70;;;11.20;1.40;;;13.34;100.00;95733.77;647391;216;42109;-74
2022/05/06 06:30:16;;;;;;;0.60;0.60;;;11.20;1.40;;;13.41;100.00;95734.63;647160;216;33913;-74
2022/05/06 06:32:58;;;;;;;1.40;1.30;;;11.30;1.40;;;13.41;100.00;95744.14;646375;212;32606;-75
2022/05/06 06:35:51;;;;;;;0.80;0.55;;;11.40;1.40;;;13.57;100.00;95748.59;646419;212;31583;-76
2022/05/06 06:38:33;;;;;;;0.80;0.57;;;11.50;1.40;;;13.68;100.00;95744.56;618613;226;32546;-75
2022/05/06 06:41:14;;;;;;;0.73;0.28;;;11.60;1.40;;;13.63;100.00;95745.00;645635;212;31411;-76
2022/05/06 06:43:57;;;;;;;0.80;0.30;;;11.50;1.40;;;13.90;100.00;95742.63;646691;212;31889;-75
2022/05/06 06:46:38;;;;;;;0.80;0.80;;;11.70;1.40;;;13.87;100.00;95741.93;646398;216;37930;-75
2022/05/06 06:49:20;;;;;;;0.80;0.52;;;11.70;1.40;;;13.73;100.00;95746.28;647236;216;31543;-75
2022/05/06 06:52:01;;;;;;;1.40;0.60;;;11.70;1.40;;;14.28;100.00;95744.92;645268;216;42335;-75
2022/05/06 06:54:43;;;;;;;0.50;0.50;;;12.00;1.40;;;14.25;100.00;95746.19;646497;212;42109;-75
2022/05/06 06:57:26;;;;;;;0.70;0.70;;;12.10;1.40;;;14.38;100.00;95749.97;647668;212;31487;-76
2022/05/06 07:00:08;;;;;;;0.40;0.40;;;12.20;1.40;;;14.46;100.00;95750.34;645957;216;31494;-75
2022/05/06 07:02:55;;;;;;;0.80;0.60;;;12.20;1.40;;;14.15;100.00;95754.42;647284;216;31503;-76
2022/05/06 07:05:34;;;;;;;0.60;0.30;;;12.00;1.40;;;14.38;100.00;95749.08;647395;216;31606;-75
2022/05/06 07:13:50;;;;;;;0.70;0.57;;;12.10;1.40;;;14.34;100.00;95764.07;647266;216;42113;-75
2022/05/06 07:16:31;;;;;;;0.85;0.55;;;12.10;1.40;;;14.13;100.00;95762.59;647157;212;31501;-76
2022/05/06 07:19:13;;;;;;;1.40;0.60;;;11.90;1.40;;;14.72;100.00;95759.42;646613;216;31490;-75
2022/05/06 07:21:55;;;;;;;0.80;0.50;;;12.20;1.40;;;14.82;100.00;95764.98;645301;216;31508;-75
2022/05/06 07:24:36;;;;;;;0.77;0.35;;;12.20;1.40;;;14.97;100.00;95766.38;645744;212;31650;-75
2022/05/06 07:27:20;;;;;;;1.35;0.77;;;12.10;1.40;;;14.77;100.00;95769.09;645982;212;31600;-75
2022/05/06 07:30:04;;;;;;;2.20;0.82;;;12.00;1.40;;;14.79;100.00;95770.13;646739;216;31495;-75
2022/05/06 07:32:46;;;;;;;0.50;0.50;;;12.10;1.40;;;15.17;100.00;95775.67;647656;216;31519;-75
2022/05/06 07:35:51;;;;;;;0.70;0.70;;;12.30;1.40;;;15.06;100.00;95774.86;645510;212;31505;-74
2022/05/06 07:38:33;;;;;;;0.70;0.70;;;12.40;1.40;;;14.97;100.00;95772.77;645442;212;31616;-76
2022/05/06 07:41:14;;;;;;;1.30;1.10;;;12.30;1.40;;;15.11;100.00;95772.30;645665;215;31624;-75
2022/05/06 07:43:56;;;;;;;1.60;0.70;;;12.30;1.40;;;15.15;100.00;95770.53;646612;216;31696;-74
2022/05/06 07:46:38;;;;;;;1.52;0.75;;;12.20;1.40;;;14.93;100.00;95771.33;646771;216;31490;-75
2022/05/06 07:49:20;;;;;;;1.35;1.00;;;12.20;1.40;;;15.09;100.00;95771.06;647636;216;31475;-74
2022/05/06 07:52:01;;;;;;;1.20;1.05;;;12.20;1.40;;;14.84;100.00;95774.44;645978;216;31748;-74
2022/05/06 07:54:43;;;;;;;2.20;1.10;;;12.00;1.40;;;14.41;100.00;95777.66;646383;212;31532;-74
2022/05/06 07:57:25;;;;;;;1.98;1.40;;;12.00;1.40;;;13.92;100.00;95775.39;647663;216;31492;-75
2022/05/06 08:00:07;;;;;;;1.23;1.12;;;12.00;1.40;;;14.33;100.00;95779.36;646250;216;32143;-75
2022/05/06 08:05:39;;;;;;;1.30;1.20;;;12.20;1.40;;;14.17;100.00;95782.83;646537;216;31964;-74
2022/05/06 08:08:21;;;;;;;1.70;1.23;;;12.10;1.40;;;14.20;100.00;95786.98;615478;222;32186;-74
2022/05/06 08:11:06;;;;;;;1.80;1.30;;;12.20;1.40;;;14.85;100.00;95787.00;646768;216;31559;-74
2022/05/06 08:13:49;;;;;;;1.80;0.95;;;12.30;1.40;;;15.06;100.00;95787.77;630079;222;31692;-74
2022/05/06 08:16:29;;;;;;;1.60;1.25;;;12.50;1.40;;;15.40;100.00;95788.93;645769;216;31570;-75
2022/05/06 08:19:11;;;;;;;2.62;1.70;;;12.70;1.40;;;15.63;100.00;95788.95;646377;216;31510;-75
2022/05/06 08:21:52;;;;;;;1.62;1.45;;;13.00;1.40;;;15.97;100.00;95788.48;646191;216;33010;-74
2022/05/06 08:24:34;;;;;;;2.45;1.73;;;13.20;1.40;;;16.57;100.00;95788.05;646574;216;31536;-74
2022/05/06 08:27:16;;;;;;;1.80;1.20;;;13.80;1.40;;;16.39;100.00;95794.75;646745;216;31639;-75
2022/05/06 08:29:58;;;;;;;1.87;1.27;;;13.60;1.40;;;16.44;100.00;95793.11;645876;212;31890;-74
2022/05/06 08:32:40;;;;;;;1.80;1.50;;;13.50;1.40;;;16.80;100.00;95788.36;645798;216;31575;-74
2022/05/06 08:35:51;;;;;;;1.65;1.45;;;13.40;1.40;;;16.10;100.00;95792.25;646486;216;31567;-74
2022/05/06 08:38:32;;;;;;;3.55;1.20;;;13.20;1.40;;;16.41;100.00;95790.47;646133;216;32091;-74
2022/05/06 08:41:17;;;;;;;1.73;1.55;;;13.20;1.40;;;15.08;100.00;95799.47;645988;216;31524;-74
2022/05/06 08:50:50;;;;;;;2.10;1.30;;;12.70;1.40;;;14.67;100.00;95798.09;646473;212;31549;-75
2022/05/06 08:52:15;;;;;;;1.70;1.37;;;12.40;1.40;;;14.44;100.00;95801.58;646389;216;31834;-74
2022/05/06 08:54:56;;;;;;;2.30;1.80;;;12.40;1.40;;;14.27;100.00;95797.73;646696;216;31589;-75
2022/05/06 08:57:39;;;;;;;1.95;1.25;;;12.20;1.40;;;14.08;100.00;95799.17;646074;216;31580;-75
2022/05/06 09:00:22;;;;;;;1.12;1.02;;;12.30;1.40;;;14.24;100.00;95801.59;645257;216;31672;-74
2022/05/06 09:03:01;;;;;;;1.52;1.42;;;12.30;1.40;;;13.98;100.00;95801.52;645830;216;31501;-75
2022/05/06 09:05:49;;;;;;;1.60;1.30;;;12.30;1.40;;;13.83;100.00;95801.61;646496;212;31534;-75
2022/05/06 09:08:37;;;;;;;1.80;1.42;;;12.20;1.40;;;13.88;100.00;95810.64;642529;216;31737;-75
2022/05/06 09:14:17;;;;;;;1.77;1.30;;;12.20;1.40;;;13.82;100.00;95817.56;646682;216;31625;-74
2022/05/06 09:17:01;;;;;;;1.58;1.48;;;12.00;1.40;;;13.79;100.00;95818.28;617539;225;31895;-74
2022/05/06 09:19:41;;;;;;;2.10;0.98;;;12.00;1.40;;;14.03;100.00;95821.55;647273;216;31554;-75
2022/05/06 09:22:22;;;;;;;2.15;1.55;;;11.90;1.40;;;13.75;100.00;95820.89;619048;222;31832;-74
2022/05/06 09:25:04;;;;;;;1.70;1.60;;;11.90;1.40;;;13.53;100.00;95815.31;647454;216;32670;-75
2022/05/06 09:27:46;;;;;;;2.90;1.90;;;12.00;1.40;;;13.73;100.00;95817.89;646920;216;31607;-75
2022/05/06 09:30:28;;;;;;;1.75;1.37;;;12.10;1.40;;;13.55;100.00;95819.56;618471;225;31867;-75
2022/05/06 09:35:54;;;;;;;3.10;2.80;;;12.10;1.40;;;13.85;100.00;95817.92;647424;216;31550;-75
2022/05/06 09:38:36;;;;;;;2.53;1.67;;;12.30;1.40;;;13.81;100.00;95813.83;646787;216;31605;-74
2022/05/06 09:41:20;;;;;;;3.10;1.92;;;12.30;1.40;;;13.83;100.00;95813.34;646126;216;32164;-74
2022/05/06 09:44:04;;;;;;;2.97;2.07;;;12.30;1.40;;;13.99;100.00;95816.30;617669;226;31930;-75
2022/05/06 09:46:46;;;;;;;2.08;1.85;;;12.30;1.40;;;13.67;100.00;95820.03;646401;216;31528;-76
2022/05/06 09:49:27;;;;;;;2.87;2.47;;;12.10;1.40;;;13.29;100.00;95821.70;645491;212;31528;-75
2022/05/06 09:52:10;;;;;;;2.03;1.83;;;11.90;1.40;;;13.38;100.00;95815.92;646006;216;31533;-75
2022/05/06 09:54:56;;;;;;;2.00;1.73;;;12.00;1.40;;;13.64;100.00;95814.32;647527;212;32236;-75
2022/05/06 09:57:36;;;;;;;2.90;1.98;;;12.10;1.40;;;13.45;100.00;95819.79;647423;216;31586;-74
2022/05/06 10:00:21;;;;;;;1.98;1.77;;;12.00;1.40;;;13.47;100.00;95821.43;645916;216;31528;-75
2022/05/06 10:03:06;;;;;;;2.70;2.20;;;12.00;1.40;;;13.35;100.00;95819.98;645631;216;42880;-74
2022/05/06 10:05:51;;;;;;;2.00;1.90;;;12.00;1.40;;;13.56;100.00;95821.88;645736;216;31543;-75
2022/05/06 10:11:12;;;;;;;2.40;1.80;;;12.00;1.40;;;13.53;100.00;95821.64;620335;226;32182;-74
2022/05/06 10:13:48;;;;;;;3.08;2.03;;;12.00;1.40;;;13.18;100.00;95825.88;647147;216;31589;-76
2022/05/06 10:16:35;;;;;;;2.55;1.98;;;11.80;1.40;;;13.07;100.00;95826.80;645819;215;42234;-74
2022/05/06 10:19:27;;;;;;;3.40;2.62;;;11.70;1.40;;;13.18;100.00;95829.21;645328;216;31584;-74
2022/05/06 10:22:09;;;;;;;2.10;1.90;;;11.70;1.40;;;13.15;100.00;95828.22;646885;216;31564;-75
2022/05/06 10:24:54;;;;;;;3.42;2.35;;;11.70;1.40;;;13.07;100.00;95828.88;647353;216;31504;-74
2022/05/06 10:35:51;;;;;;;2.47;1.90;;;11.40;1.40;;;12.70;100.00;95820.14;645273;216;31588;-75
2022/05/06 10:38:36;;;;;;;2.67;2.22;;;11.50;1.40;;;12.68;100.00;95825.09;619269;226;33577;-75
2022/05/06 10:41:18;;;;;;;2.28;1.85;;;11.50;1.40;;;12.83;100.00;95823.77;620251;225;43211;-75
2022/05/06 10:43:59;;;;;;;3.42;2.53;;;11.60;1.40;;;12.96;100.00;95822.25;645889;216;38777;-75
2022/05/06 10:46:41;;;;;;;2.60;1.70;;;11.80;1.40;;;13.06;100.00;95821.38;646157;216;31877;-74
2022/05/06 10:49:47;;;;;;;2.90;2.00;;;11.80;1.40;;;12.96;100.00;95822.00;646997;216;31663;-74
2022/05/06 10:55:04;;;;;;;3.30;2.30;;;11.60;1.40;;;12.73;100.00;95821.06;647106;212;31565;-73
2022/05/06 10:58:01;;;;;;;2.30;2.10;;;11.60;1.40;;;12.80;100.00;95819.14;646562;216;31726;-75
2022/05/06 11:00:44;;;;;;;5.50;2.58;;;11.70;1.40;;;12.96;100.00;95820.95;646069;216;42183;-75
2022/05/06 11:03:29;;;;;;;4.40;1.98;;;11.70;1.40;;;12.95;100.00;95820.05;646641;212;31946;-74
2022/05/06 11:06:11;;;;;;;2.65;2.45;;;11.70;1.40;;;12.77;100.00;95820.62;644884;216;31606;-74
2022/05/06 11:08:53;;;;;;;2.30;2.10;;;11.60;1.40;;;12.80;100.00;95819.27;640617;212;31684;-75
2022/05/06 11:11:37;;;;;;;4.50;2.53;;;11.60;1.40;;;12.76;100.00;95817.00;647103;216;42278;-74
2022/05/06 11:14:19;;;;;;;3.90;2.62;;;11.60;1.40;;;12.69;100.00;95818.80;647320;216;42204;-74
2022/05/06 11:17:14;;;;;;;3.78;2.65;;;11.60;1.40;;;12.75;100.00;95817.74;647096;212;36123;-76
2022/05/06 11:19:55;;;;;;;3.30;2.70;;;11.60;1.40;;;12.77;100.00;95818.57;646112;216;32359;-74
2022/05/06 11:22:39;;;;;;;3.72;2.60;;;11.60;1.40;;;12.74;100.00;95818.31;645648;216;31592;-75
2022/05/06 11:25:19;;;;;;;3.40;2.92;;;11.60;1.40;;;12.89;100.00;95817.31;647342;212;31965;-74
2022/05/06 11:28:00;;;;;;;2.85;2.20;;;11.70;1.40;;;13.17;100.00;95817.19;646421;212;37731;-75
2022/05/06 11:30:44;;;;;;;4.00;3.00;;;11.80;1.40;;;13.22;100.00;95816.28;615260;227;31963;-75
2022/05/06 11:35:50;;;;;;;;;;;11.80;1.40;;;13.09;100.00;95815.66;650699;216;24842;-74
2022/05/06 11:38:32;;;;;;;;;;;11.80;1.40;;;13.20;100.00;95817.59;648657;216;25468;-74
2022/05/06 11:41:14;;;;;;;;;;;11.80;1.40;;;13.00;100.00;95822.25;653321;216;24828;-74
2022/05/06 11:43:55;;;;;;;;;;;11.70;1.40;;;13.02;100.00;95819.41;653840;212;25523;-74
2022/05/06 11:49:24;;;;;;;;;;;11.70;1.40;;;12.95;100.00;95816.47;653614;216;24818;-75
2022/05/06 11:52:07;;;;;;;;;;;11.70;1.40;;;12.88;100.00;95817.50;652299;216;25304;-74
2022/05/06 11:54:49;;;;;;;;;;;11.60;1.40;;;12.82;100.00;95816.27;621889;226;24870;-74
2022/05/06 11:57:30;;;;;;;;;;;11.60;1.40;;;12.88;100.00;95815.09;654288;216;24746;-73
2022/05/06 12:00:13;;;;;;;;;;;11.60;1.40;;;12.77;100.00;95814.53;654059;212;24833;-74
2022/05/06 12:02:54;;;;;;;;;;;11.60;1.40;;;12.75;100.00;95813.66;637608;218;25016;-75
2022/05/06 12:05:35;;;;;;;;;;;11.60;1.40;;;12.89;100.00;95811.44;652766;212;24808;-74
2022/05/06 12:08:17;;;;;;;;;;;11.60;1.40;;;12.86;100.00;95805.42;649777;212;24861;-74
2022/05/06 12:10:59;;;;;;;;;;;11.60;1.40;;;12.77;100.00;95802.34;652251;216;25148;-74
2022/05/06 12:13:40;;;;;;;;;;;11.60;1.40;;;12.70;100.00;95803.72;649667;216;24742;-75
2022/05/06 12:16:21;;;;;;;;;;;11.60;1.40;;;12.85;100.00;95803.92;653438;212;24815;-74
2022/05/06 12:19:08;;;;;;;;;;;11.80;1.40;;;13.03;100.00;95805.06;628435;224;24981;-75
2022/05/06 12:21:49;;;;;;;;;;;11.90;1.40;;;13.15;100.00;95807.66;652052;216;24909;-74
2022/05/06 12:24:37;;;;;;;;;;;11.90;1.40;;;13.17;100.00;95809.67;652869;212;24743;-74
2022/05/06 12:27:25;;;;;;;;;;;11.90;1.40;;;13.16;100.00;95806.84;652832;216;25122;-75
2022/05/06 12:30:10;;;;;;;;;;;12.00;1.40;;;13.53;100.00;95806.27;653671;216;24850;-75
2022/05/06 12:33:01;;;;;;;;;;;12.10;1.40;;;13.35;100.00;95809.08;649484;215;25417;-75
2022/05/06 12:35:59;;;;;;;5.95;4.70;;;12.10;1.40;;;13.52;100.00;95807.72;646659;216;32080;-75
2022/05/06 12:38:48;;;;;;;5.80;3.47;;;12.20;1.40;;;13.61;100.00;95809.13;645094;212;31568;-74
2022/05/06 12:41:34;;;;;;;5.90;4.20;;;12.20;1.40;;;13.67;100.00;95813.98;646431;212;32079;-75
2022/05/06 12:44:16;;;;;;;4.20;3.40;;;12.10;1.40;;;13.66;100.00;95816.94;647449;216;31716;-75
2022/05/06 12:46:57;;;;;;;4.60;4.07;;;12.10;1.40;;;13.70;100.00;95815.76;645845;212;31575;-74
2022/05/06 12:52:15;;;;;;;5.72;4.07;;;12.10;1.40;;;13.54;100.00;95817.81;645287;216;31797;-74